createdAt,value
2016-11-01T16:37:22.043Z,19.84
2016-11-01T16:38:32.431Z,19.84
2016-11-01T16:39:43.695Z,19.85
2016-11-01T16:40:54.996Z,19.86
2016-11-01T16:42:05.724Z,19.82
2016-11-01T16:43:17.477Z,19.89
2016-11-01T16:44:30.713Z,19.82
2016-11-01T16:45:42.176Z,19.76
2016-11-01T16:46:54.839Z,19.84
2016-11-01T16:48:07.424Z,19.7
2016-11-01T16:49:19.420Z,19.76
2016-11-01T16:50:31.998Z,19.67
2016-11-01T16:51:43.927Z,19.73
2016-11-01T16:52:56.006Z,19.69
2016-11-01T16:54:07.092Z,19.67
2016-11-01T16:55:19.291Z,19.71
2016-11-01T16:56:30.779Z,19.67
2016-11-01T16:57:41.779Z,19.67
2016-11-01T16:58:52.322Z,19.73
2016-11-01T17:00:04.457Z,19.73
2016-11-01T17:01:16.569Z,19.7
2016-11-01T17:02:28.608Z,19.71
2016-11-01T17:03:40.174Z,19.82
2016-11-01T17:04:52.160Z,19.7
2016-11-01T17:06:04.076Z,19.73
2016-11-01T17:07:16.085Z,19.7
2016-11-01T17:08:27.487Z,19.7
2016-11-01T17:09:39.581Z,19.77
2016-11-01T17:10:51.167Z,19.7
2016-11-01T17:12:02.889Z,19.67
2016-11-01T17:13:15.057Z,19.67
2016-11-01T17:14:25.932Z,19.49
2016-11-01T17:15:37.081Z,19.66
2016-11-01T17:16:49.767Z,19.59
2016-11-01T17:18:02.148Z,19.56
2016-11-01T17:19:14.259Z,19.54
2016-11-01T17:20:26.234Z,19.52
2016-11-01T17:21:36.761Z,19.52
2016-11-01T17:22:48.268Z,19.54
2016-11-01T17:24:01.063Z,19.55
2016-11-01T17:25:13.420Z,19.55
2016-11-01T17:26:24.554Z,19.54
2016-11-01T17:27:36.766Z,19.55
2016-11-01T17:28:47.782Z,19.47
2016-11-01T17:29:58.583Z,19.49
2016-11-01T17:31:09.384Z,19.49
2016-11-01T17:32:19.841Z,19.58
2016-11-01T17:33:30.825Z,19.55
2016-11-01T17:34:41.228Z,19.54
2016-11-01T17:35:52.516Z,19.52
2016-11-01T17:37:05.143Z,19.52
2016-11-01T17:38:16.839Z,19.52
2016-11-01T17:39:29.176Z,19.52
2016-11-01T17:40:40.303Z,19.52
2016-11-01T17:41:51.739Z,19.52
2016-11-01T17:43:02.273Z,19.55
2016-11-01T17:44:13.065Z,19.47
2016-11-01T17:45:25.244Z,19.49
2016-11-01T17:46:37.572Z,19.66
2016-11-01T17:47:48.377Z,19.63
2016-11-01T17:48:59.644Z,19.66
2016-11-01T17:50:10.061Z,19.69
2016-11-01T17:51:21.992Z,19.64
2016-11-01T17:52:31.860Z,19.63
2016-11-01T17:53:44.323Z,19.66
2016-11-01T17:54:55.643Z,19.67
2016-11-01T17:56:08.426Z,19.66
2016-11-01T17:57:20.283Z,19.51
2016-11-01T17:58:32.824Z,19.51
2016-11-01T17:59:44.763Z,19.52
2016-11-01T18:00:56.590Z,19.49
2016-11-01T18:02:07.888Z,19.52
2016-11-01T18:03:19.650Z,19.51
2016-11-01T18:04:30.712Z,19.54
2016-11-01T18:05:41.203Z,19.59
2016-11-01T18:06:53.899Z,19.52
2016-11-01T18:08:04.662Z,19.49
2016-11-01T18:09:15.069Z,19.56
2016-11-01T18:10:26.465Z,19.54
2016-11-01T18:11:38.449Z,19.55
2016-11-01T18:12:50.298Z,19.51
2016-11-01T18:14:01.809Z,19.52
2016-11-01T18:15:12.904Z,19.54
2016-11-01T18:16:24.552Z,19.54
2016-11-01T18:17:35.701Z,19.59
2016-11-01T18:18:47.968Z,19.54
2016-11-01T18:20:00.212Z,19.55
2016-11-01T18:21:12.013Z,19.47
2016-11-01T18:22:24.638Z,19.55
2016-11-01T18:23:36.451Z,19.48
2016-11-01T18:24:48.786Z,19.51
2016-11-01T18:25:59.722Z,19.51
2016-11-01T18:27:10.733Z,19.45
2016-11-01T18:28:22.982Z,19.47
2016-11-01T18:29:34.270Z,19.54
2016-11-01T18:30:45.422Z,19.51
2016-11-01T18:31:56.796Z,19.51
2016-11-01T18:33:08.170Z,19.56
2016-11-01T18:34:19.355Z,19.52
2016-11-01T18:35:31.732Z,19.44
2016-11-01T18:36:44.390Z,19.45
2016-11-01T18:37:56.687Z,19.54
2016-11-01T18:39:07.998Z,19.49
2016-11-01T18:40:21.129Z,19.52
2016-11-01T18:41:32.682Z,19.52
2016-11-01T18:42:44.108Z,19.47
2016-11-01T18:43:54.815Z,19.49
2016-11-01T18:45:06.341Z,19.37
2016-11-01T18:46:19.142Z,19.37
2016-11-01T18:47:31.530Z,19.45
2016-11-01T18:48:43.208Z,19.44
2016-11-01T18:49:53.822Z,19.45
2016-11-01T18:51:05.257Z,19.4
2016-11-01T18:52:16.768Z,19.29
2016-11-01T18:53:27.646Z,19.31
2016-11-01T18:54:39.348Z,19.36
2016-11-01T18:55:52.571Z,19.29
2016-11-01T18:57:04.748Z,19.31
2016-11-01T18:58:15.893Z,19.27
2016-11-01T18:59:27.671Z,19.36
2016-11-01T19:00:39.630Z,19.3
2016-11-01T19:01:51.851Z,19.37
2016-11-01T19:03:04.142Z,19.37
2016-11-01T19:04:14.085Z,19.36
2016-11-01T19:05:25.323Z,19.3
2016-11-01T19:06:36.979Z,19.31
2016-11-01T19:07:47.767Z,19.31
2016-11-01T19:08:57.848Z,19.33
2016-11-01T19:10:10.408Z,19.24
2016-11-01T19:11:20.636Z,19.24
2016-11-01T19:12:31.739Z,19.27
2016-11-01T19:13:42.442Z,19.26
2016-11-01T19:14:54.624Z,19.26
2016-11-01T19:16:05.693Z,19.16
2016-11-01T19:17:16.483Z,19.29
2016-11-01T19:18:28.230Z,19.26
2016-11-01T19:19:39.902Z,19.24
2016-11-01T19:20:52.111Z,19.24
2016-11-01T19:22:02.959Z,19.19
2016-11-01T19:23:15.235Z,19.21
2016-11-01T19:24:26.386Z,19.21
2016-11-01T19:25:36.824Z,19.19
2016-11-01T19:26:47.019Z,19.27
2016-11-01T19:27:57.884Z,19.27
2016-11-01T19:29:10.678Z,19.33
2016-11-01T19:30:22.265Z,19.21
2016-11-01T19:31:35.562Z,19.27
2016-11-01T19:32:46.375Z,19.29
2016-11-01T19:33:58.453Z,19.26
2016-11-01T19:35:11.757Z,19.22
2016-11-01T19:36:23.838Z,19.27
2016-11-01T19:37:35.445Z,19.29
2016-11-01T19:38:46.851Z,19.27
2016-11-01T19:39:59.680Z,19.18
2016-11-01T19:41:11.664Z,19.22
2016-11-01T19:42:24.198Z,19.26
2016-11-01T19:43:35.941Z,19.18
2016-11-01T19:44:46.249Z,19.24
2016-11-01T19:45:57.717Z,19.26
2016-11-01T19:47:08.735Z,19.26
2016-11-01T19:48:19.732Z,19.24
2016-11-01T19:49:31.168Z,19.24
2016-11-01T19:50:44.410Z,19.3
2016-11-01T19:51:55.230Z,19.22
2016-11-01T19:53:06.524Z,19.33
2016-11-01T19:54:18.542Z,19.29
2016-11-01T19:55:29.500Z,19.26
2016-11-01T19:56:41.459Z,19.24
2016-11-01T19:57:53.955Z,19.3
2016-11-01T19:59:05.145Z,19.19
2016-11-01T20:00:17.895Z,19.19
2016-11-01T20:01:29.916Z,19.22
2016-11-01T20:02:42.110Z,19.18
2016-11-01T20:03:53.806Z,19.26
2016-11-01T20:05:04.209Z,19.24
2016-11-01T20:06:14.298Z,19.24
2016-11-01T20:07:26.398Z,19.29
2016-11-01T20:08:38.176Z,19.21
2016-11-01T20:09:50.192Z,19.22
2016-11-01T20:11:02.126Z,19.24
2016-11-01T20:12:14.216Z,19.22
2016-11-01T20:13:25.529Z,19.29
2016-11-01T20:14:36.779Z,19.26
2016-11-01T20:15:48.533Z,19.12
2016-11-01T20:17:00.444Z,19.12
2016-11-01T20:18:12.461Z,19.18
2016-11-01T20:19:24.996Z,19.12
2016-11-01T20:20:35.387Z,19.11
2016-11-01T20:21:46.142Z,19.16
2016-11-01T20:22:58.868Z,19.16
2016-11-01T20:24:09.874Z,19.19
2016-11-01T20:25:20.530Z,19.08
2016-11-01T20:26:33.658Z,19.19
2016-11-01T20:27:45.752Z,19.14
2016-11-01T20:28:56.773Z,19.12
2016-11-01T20:30:08.336Z,19.11
2016-11-01T20:31:20.379Z,19.18
2016-11-01T20:32:31.231Z,19.08
2016-11-01T20:33:42.863Z,19.19
2016-11-01T20:34:54.152Z,19.15
2016-11-01T20:36:06.086Z,19.08
2016-11-01T20:37:17.367Z,18.98
2016-11-01T20:38:28.797Z,19
2016-11-01T20:39:39.779Z,18.96
2016-11-01T20:40:50.110Z,18.99
2016-11-01T20:42:00.584Z,18.9
2016-11-01T20:43:11.268Z,18.9
2016-11-01T20:44:23.483Z,18.89
2016-11-01T20:45:34.837Z,18.83
2016-11-01T20:46:46.738Z,18.86
2016-11-01T20:47:57.129Z,18.78
2016-11-01T20:49:08.119Z,18.77
2016-11-01T20:50:20.726Z,18.8
2016-11-01T20:51:31.342Z,18.81
2016-11-01T20:52:43.047Z,18.86
2016-11-01T20:53:54.881Z,18.83
2016-11-01T20:55:05.593Z,18.8
2016-11-01T20:56:17.775Z,18.75
2016-11-01T20:57:29.867Z,18.74
2016-11-01T20:58:41.462Z,18.74
2016-11-01T20:59:53.158Z,18.65
2016-11-01T21:01:04.395Z,18.66
2016-11-01T21:02:15.360Z,18.68
2016-11-01T21:03:27.366Z,18.65
2016-11-01T21:04:38.721Z,18.63
2016-11-01T21:05:50.385Z,18.66
2016-11-01T21:07:01.702Z,18.63
2016-11-01T21:08:13.595Z,18.62
2016-11-01T21:09:26.176Z,18.55
2016-11-01T21:10:38.185Z,18.58
2016-11-01T21:11:48.927Z,18.53
2016-11-01T21:12:59.674Z,18.63
2016-11-01T21:14:12.405Z,18.58
2016-11-01T21:15:23.976Z,18.6
2016-11-01T21:16:36.003Z,18.49
2016-11-01T21:17:48.483Z,18.49
2016-11-01T21:18:58.510Z,18.45
2016-11-01T21:20:09.861Z,18.45
2016-11-01T21:21:21.842Z,18.41
2016-11-01T21:22:32.995Z,18.43
2016-11-01T21:23:43.337Z,18.44
2016-11-01T21:24:54.750Z,18.37
2016-11-01T21:26:08.016Z,18.34
2016-11-01T21:27:18.379Z,18.29
2016-11-01T21:28:30.923Z,18.28
2016-11-01T21:29:42.022Z,18.23
2016-11-01T21:30:54.075Z,18.25
2016-11-01T21:32:05.298Z,18.2
2016-11-01T21:33:16.578Z,18.08
2016-11-01T21:34:28.239Z,18.11
2016-11-01T21:35:40.404Z,18.1
2016-11-01T21:36:51.250Z,17.95
2016-11-01T21:38:02.754Z,17.89
2016-11-01T21:39:14.847Z,17.86
2016-11-01T21:40:26.926Z,17.76
2016-11-01T21:41:38.287Z,17.87
2016-11-01T21:42:51.340Z,17.86
2016-11-01T21:44:03.407Z,17.85
2016-11-01T21:45:16.142Z,17.86
2016-11-01T21:46:29.194Z,17.9
2016-11-01T21:47:40.897Z,17.9
2016-11-01T21:48:52.401Z,18
2016-11-01T21:50:03.673Z,18
2016-11-01T21:51:16.265Z,17.85
2016-11-01T21:52:28.885Z,17.89
2016-11-01T21:53:40.724Z,17.79
2016-11-01T21:54:52.412Z,17.9
2016-11-01T21:56:04.736Z,17.87
2016-11-01T21:57:16.029Z,17.85
2016-11-01T21:58:28.763Z,17.78
2016-11-01T21:59:41.493Z,17.8
2016-11-01T22:00:53.078Z,17.76
2016-11-01T22:02:06.314Z,17.74
2016-11-01T22:03:17.825Z,17.74
2016-11-01T22:04:29.252Z,17.74
2016-11-01T22:05:40.588Z,17.87
2016-11-01T22:06:51.728Z,17.76
2016-11-01T22:08:04.403Z,17.74
2016-11-01T22:09:15.225Z,17.8
2016-11-01T22:10:27.508Z,17.78
2016-11-01T22:11:39.672Z,17.83
2016-11-01T22:12:51.251Z,17.83
2016-11-01T22:14:03.179Z,17.74
2016-11-01T22:15:16.319Z,17.78
2016-11-01T22:16:27.815Z,17.87
2016-11-01T22:17:39.313Z,17.76
2016-11-01T22:18:51.845Z,17.78
2016-11-01T22:20:04.140Z,17.79
2016-11-01T22:21:15.845Z,17.82
2016-11-01T22:22:26.895Z,17.74
2016-11-01T22:23:39.468Z,17.74
2016-11-01T22:24:52.101Z,17.71
2016-11-01T22:26:03.200Z,17.79
2016-11-01T22:27:14.916Z,17.74
2016-11-01T22:28:26.707Z,17.74
2016-11-01T22:29:38.683Z,17.72
2016-11-01T22:30:50.732Z,17.7
2016-11-01T22:32:02.323Z,17.72
2016-11-01T22:33:13.332Z,17.63
2016-11-01T22:34:23.505Z,17.63
2016-11-01T22:35:35.371Z,17.71
2016-11-01T22:36:48.695Z,17.54
2016-11-01T22:38:00.881Z,17.71
2016-11-01T22:39:11.622Z,17.68
2016-11-01T22:40:22.550Z,17.67
2016-11-01T22:41:34.561Z,17.78
2016-11-01T22:42:46.899Z,17.72
2016-11-01T22:43:58.044Z,17.67
2016-11-01T22:45:09.750Z,17.7
2016-11-01T22:46:21.456Z,17.63
2016-11-01T22:47:33.298Z,17.54
2016-11-01T22:48:44.509Z,17.56
2016-11-01T22:49:55.602Z,17.56
2016-11-01T22:51:08.373Z,17.46
2016-11-01T22:52:20.857Z,17.52
2016-11-01T22:53:32.495Z,17.45
2016-11-01T22:54:44.352Z,17.48
2016-11-01T22:55:56.980Z,17.52
2016-11-01T22:57:07.913Z,17.45
2016-11-01T22:58:18.270Z,17.48
2016-11-01T22:59:30.701Z,17.46
2016-11-01T23:00:43.138Z,17.41
2016-11-01T23:01:55.408Z,17.45
2016-11-01T23:03:07.621Z,17.48
2016-11-01T23:04:19.440Z,17.41
2016-11-01T23:05:31.037Z,17.45
2016-11-01T23:06:43.056Z,17.36
2016-11-01T23:07:55.361Z,17.34
2016-11-01T23:09:07.478Z,17.38
2016-11-01T23:10:19.497Z,17.26
2016-11-01T23:11:32.379Z,17.19
2016-11-01T23:12:43.633Z,17.24
2016-11-01T23:13:55.387Z,17.2
2016-11-01T23:15:07.669Z,17.08
2016-11-01T23:16:19.023Z,17.02
2016-11-01T23:17:30.672Z,17.01
2016-11-01T23:18:43.386Z,16.96
2016-11-01T23:19:55.196Z,16.9
2016-11-01T23:21:06.683Z,16.84
2016-11-01T23:22:19.167Z,16.86
2016-11-01T23:23:31.525Z,16.69
2016-11-01T23:24:42.998Z,16.71
2016-11-01T23:25:55.159Z,16.68
2016-11-01T23:27:08.391Z,16.64
2016-11-01T23:28:20.769Z,16.66
2016-11-01T23:29:33.384Z,16.6
2016-11-01T23:30:45.774Z,16.64
2016-11-01T23:31:58.044Z,16.61
2016-11-01T23:33:09.690Z,16.56
2016-11-01T23:34:20.778Z,16.61
2016-11-01T23:35:32.226Z,16.64
2016-11-01T23:36:44.805Z,16.68
2016-11-01T23:37:56.274Z,16.72
2016-11-01T23:39:07.827Z,16.75
2016-11-01T23:40:18.765Z,16.81
2016-11-01T23:41:30.285Z,16.83
2016-11-01T23:42:42.551Z,16.87
2016-11-01T23:43:53.985Z,16.97
2016-11-01T23:45:05.999Z,16.94
2016-11-01T23:46:18.476Z,17.01
2016-11-01T23:47:30.704Z,16.96
2016-11-01T23:48:43.931Z,16.97
2016-11-01T23:49:55.212Z,16.94
2016-11-01T23:51:06.714Z,17.02
2016-11-01T23:52:17.638Z,17.02
2016-11-01T23:53:28.861Z,16.93
2016-11-01T23:54:40.222Z,16.96
2016-11-01T23:55:52.917Z,17.09
2016-11-01T23:57:05.690Z,17.05
2016-11-01T23:58:18.132Z,17.02
2016-11-01T23:59:29.876Z,16.97
